Time;durP1;ratioP1;P1;durP2;ratioP2;P2;SDS_P1;SDS_P2;PMS_P1;PMS_P2;Temp;Humidity;BMP_temperature;BMP_pressure;BME280_temperature;BME280_humidity;BME280_pressure;Samples;Min_cycle;Max_cycle;Signal;HPM_P1;HPM_P2
2024/01/21 00:01:20;;;;;;;8.52;5.32;;;;;;;;;;5081242;28;20043;-76
2024/01/21 00:03:46;;;;;;;15.13;5.40;;;;;;;;;;5066412;28;20032;-76
2024/01/21 00:06:12;;;;;;;5.60;4.28;;;;;;;;;;5074679;28;20051;-76
2024/01/21 00:08:38;;;;;;;12.63;5.38;;;;;;;;;;5075445;28;20480;-77
2024/01/21 00:11:04;;;;;;;11.48;5.60;;;;;;;;;;5079131;28;20762;-76
2024/01/21 00:13:30;;;;;;;11.18;4.20;;;;;;;;;;5082700;28;20046;-76
2024/01/21 00:15:56;;;;;;;16.38;5.38;;;;;;;;;;5079811;28;20020;-76
2024/01/21 00:18:22;;;;;;;9.63;8.68;;;;;;;;;;5076002;28;20028;-75
2024/01/21 00:20:48;;;;;;;11.57;5.93;;;;;;;;;;5080408;28;20470;-77
2024/01/21 00:23:14;;;;;;;11.88;6.15;;;;;;;;;;5077186;28;20036;-76
2024/01/21 00:25:40;;;;;;;11.07;6.93;;;;;;;;;;5068413;28;20052;-76
2024/01/21 00:28:06;;;;;;;10.68;7.03;;;;;;;;;;5073317;28;20492;-75
2024/01/21 00:30:31;;;;;;;8.55;4.95;;;;;;;;;;5077876;28;20682;-76
2024/01/21 00:32:57;;;;;;;12.18;6.38;;;;;;;;;;5085403;28;20048;-76
2024/01/21 00:35:23;;;;;;;5.78;3.03;;;;;;;;;;5079022;28;20028;-75
2024/01/21 00:37:49;;;;;;;6.93;5.68;;;;;;;;;;5060474;28;20027;-76
2024/01/21 00:40:15;;;;;;;13.63;7.30;;;;;;;;;;5089906;28;20130;-75
2024/01/21 00:42:41;;;;;;;9.48;6.15;;;;;;;;;;5084468;28;20134;-75
2024/01/21 00:45:07;;;;;;;12.15;8.00;;;;;;;;;;5077736;28;20032;-77
2024/01/21 00:47:33;;;;;;;11.35;6.13;;;;;;;;;;5084318;28;20042;-77
2024/01/21 00:49:59;;;;;;;13.05;6.95;;;;;;;;;;5078950;28;20615;-76
2024/01/21 00:52:26;;;;;;;15.35;6.75;;;;;;;;;;5064208;28;20032;-77
2024/01/21 00:54:53;;;;;;;9.93;5.43;;;;;;;;;;5079172;28;20115;-76
2024/01/21 00:57:19;;;;;;;13.57;5.43;;;;;;;;;;5070003;28;20047;-76
2024/01/21 00:59:45;;;;;;;7.30;4.68;;;;;;;;;;5078809;28;20077;-77
2024/01/21 01:02:11;;;;;;;8.90;5.20;;;;;;;;;;5077041;28;20036;-76
2024/01/21 01:04:37;;;;;;;13.75;6.70;;;;;;;;;;5074054;28;20071;-75
2024/01/21 01:07:03;;;;;;;6.13;5.22;;;;;;;;;;5078688;28;20023;-76
2024/01/21 01:09:29;;;;;;;6.57;5.82;;;;;;;;;;5070983;28;20042;-75
2024/01/21 01:11:55;;;;;;;9.43;4.97;;;;;;;;;;5080297;28;20036;-77
2024/01/21 01:14:21;;;;;;;11.90;4.68;;;;;;;;;;5077504;28;20054;-76
2024/01/21 01:16:47;;;;;;;8.02;4.90;;;;;;;;;;5078586;28;20717;-77
2024/01/21 01:19:13;;;;;;;7.82;4.25;;;;;;;;;;5080198;28;20041;-75
2024/01/21 01:21:39;;;;;;;45.22;5.90;;;;;;;;;;5077834;28;20174;-76
2024/01/21 01:24:05;;;;;;;7.97;5.30;;;;;;;;;;5079600;28;20036;-76
2024/01/21 01:26:31;;;;;;;19.25;6.15;;;;;;;;;;5079781;28;20391;-76
2024/01/21 01:28:58;;;;;;;9.75;5.10;;;;;;;;;;5072888;28;20028;-78
2024/01/21 01:31:24;;;;;;;14.52;5.45;;;;;;;;;;5076317;28;20475;-77
2024/01/21 01:33:50;;;;;;;8.00;5.43;;;;;;;;;;5073815;28;20039;-76
2024/01/21 01:36:16;;;;;;;12.27;6.63;;;;;;;;;;5074987;28;20016;-77
2024/01/21 01:38:42;;;;;;;11.68;5.43;;;;;;;;;;5070934;28;20551;-76
2024/01/21 01:41:08;;;;;;;11.73;6.45;;;;;;;;;;5075137;28;20125;-77
2024/01/21 01:43:34;;;;;;;4.53;3.72;;;;;;;;;;5077074;28;20032;-76
2024/01/21 01:46:00;;;;;;;18.10;7.15;;;;;;;;;;5076040;28;20311;-77
2024/01/21 01:48:27;;;;;;;20.35;7.68;;;;;;;;;;5065453;28;20025;-78
2024/01/21 01:50:53;;;;;;;11.60;5.63;;;;;;;;;;5075652;28;20434;-78
2024/01/21 01:53:19;;;;;;;4.88;2.65;;;;;;;;;;5077988;28;20101;-77
2024/01/21 01:55:45;;;;;;;8.68;5.47;;;;;;;;;;5064483;28;20127;-76
2024/01/21 01:58:15;;;;;;;9.85;5.70;;;;;;;;;;5072128;28;20032;-76
2024/01/21 02:00:41;;;;;;;10.98;6.60;;;;;;;;;;5082191;28;20399;-77
2024/01/21 02:03:08;;;;;;;6.32;4.97;;;;;;;;;;5083026;28;20021;-76
2024/01/21 02:05:34;;;;;;;8.43;3.95;;;;;;;;;;5076279;28;20032;-76
2024/01/21 02:08:00;;;;;;;8.00;4.80;;;;;;;;;;5067490;28;20036;-75
2024/01/21 02:10:29;;;;;;;8.20;6.30;;;;;;;;;;5073720;28;20055;-77
2024/01/21 02:12:55;;;;;;;7.93;5.35;;;;;;;;;;5081574;28;20051;-76
2024/01/21 02:15:21;;;;;;;12.80;7.00;;;;;;;;;;5077920;28;20028;-76
2024/01/21 02:17:47;;;;;;;17.40;5.75;;;;;;;;;;5072870;28;20032;-76
2024/01/21 02:20:13;;;;;;;9.60;5.57;;;;;;;;;;5076200;28;20537;-76
2024/01/21 02:22:42;;;;;;;12.70;6.03;;;;;;;;;;5078896;28;20139;-80
2024/01/21 02:25:09;;;;;;;14.57;7.05;;;;;;;;;;5082045;28;20051;-79
2024/01/21 02:27:35;;;;;;;7.60;5.38;;;;;;;;;;5073472;28;20028;-77
2024/01/21 02:30:01;;;;;;;8.50;4.72;;;;;;;;;;5073711;28;20557;-78
2024/01/21 02:32:28;;;;;;;7.43;5.13;;;;;;;;;;5070092;28;20024;-75
2024/01/21 02:34:54;;;;;;;8.95;5.30;;;;;;;;;;5076648;28;20012;-76
2024/01/21 02:37:21;;;;;;;12.43;5.97;;;;;;;;;;5075124;28;20147;-79
2024/01/21 02:39:47;;;;;;;9.70;4.88;;;;;;;;;;5075582;28;20198;-78
2024/01/21 02:42:13;;;;;;;10.40;4.97;;;;;;;;;;5073300;28;20031;-78
2024/01/21 02:44:39;;;;;;;8.30;5.32;;;;;;;;;;5079333;28;20036;-78
2024/01/21 02:47:05;;;;;;;7.40;3.65;;;;;;;;;;5070324;28;20036;-78
2024/01/21 02:49:31;;;;;;;16.63;6.30;;;;;;;;;;5068952;28;20115;-76
2024/01/21 02:51:57;;;;;;;7.05;4.30;;;;;;;;;;5082617;28;20554;-79
2024/01/21 02:54:23;;;;;;;8.13;4.47;;;;;;;;;;5081239;28;20032;-78
2024/01/21 02:56:49;;;;;;;6.90;4.80;;;;;;;;;;5075068;28;20082;-77
2024/01/21 02:59:15;;;;;;;7.32;5.72;;;;;;;;;;5067320;28;20032;-77
2024/01/21 03:01:41;;;;;;;12.63;5.97;;;;;;;;;;5080229;28;20028;-78
2024/01/21 03:04:11;;;;;;;5.07;3.50;;;;;;;;;;5072966;28;22034;-78
2024/01/21 03:06:37;;;;;;;5.68;4.88;;;;;;;;;;5080175;28;20320;-78
2024/01/21 03:09:03;;;;;;;6.43;3.72;;;;;;;;;;5083954;28;20086;-78
2024/01/21 03:11:29;;;;;;;9.10;3.58;;;;;;;;;;5079269;28;20036;-78
2024/01/21 03:13:55;;;;;;;11.90;5.20;;;;;;;;;;5079554;28;20028;-79
2024/01/21 03:16:21;;;;;;;10.52;6.40;;;;;;;;;;5083322;28;20498;-79
2024/01/21 03:18:47;;;;;;;8.98;4.70;;;;;;;;;;5068149;28;20479;-78
2024/01/21 03:21:13;;;;;;;8.50;3.90;;;;;;;;;;5082706;28;20110;-77
2024/01/21 03:23:39;;;;;;;7.93;3.55;;;;;;;;;;5087473;28;20120;-78
2024/01/21 03:26:05;;;;;;;6.93;4.65;;;;;;;;;;5086936;28;20028;-77
2024/01/21 03:28:31;;;;;;;5.00;4.07;;;;;;;;;;5084624;28;20494;-78
2024/01/21 03:30:57;;;;;;;6.50;4.70;;;;;;;;;;5080394;28;20446;-77
2024/01/21 03:33:23;;;;;;;8.80;4.05;;;;;;;;;;5087949;28;20067;-78
2024/01/21 03:35:49;;;;;;;8.65;5.10;;;;;;;;;;5089669;28;20258;-77
2024/01/21 03:38:15;;;;;;;8.75;3.80;;;;;;;;;;5082233;28;20012;-77
2024/01/21 03:40:41;;;;;;;10.05;5.00;;;;;;;;;;5089194;28;20046;-78
2024/01/21 03:43:07;;;;;;;8.35;5.32;;;;;;;;;;5098995;28;20068;-77
2024/01/21 03:45:33;;;;;;;7.75;5.25;;;;;;;;;;5093445;28;20205;-77
2024/01/21 03:47:59;;;;;;;6.57;3.30;;;;;;;;;;5081346;28;20028;-78
2024/01/21 03:50:24;;;;;;;11.35;6.40;;;;;;;;;;5078874;28;20039;-78
2024/01/21 03:52:50;;;;;;;6.18;4.65;;;;;;;;;;5075800;28;20379;-78
2024/01/21 03:55:17;;;;;;;6.97;5.47;;;;;;;;;;5075739;28;20060;-78
2024/01/21 03:57:43;;;;;;;5.75;3.30;;;;;;;;;;5074158;28;20040;-77
2024/01/21 04:00:10;;;;;;;4.22;3.90;;;;;;;;;;5081144;28;20450;-79
2024/01/21 04:02:36;;;;;;;8.02;3.90;;;;;;;;;;5083312;28;20040;-78
2024/01/21 04:05:03;;;;;;;12.43;4.88;;;;;;;;;;5085216;28;20232;-78
2024/01/21 04:07:29;;;;;;;6.80;5.00;;;;;;;;;;5084607;28;20068;-78
2024/01/21 04:09:55;;;;;;;6.80;4.22;;;;;;;;;;5082804;28;20463;-79
2024/01/21 04:12:21;;;;;;;9.43;4.53;;;;;;;;;;5079403;28;20099;-78
2024/01/21 04:14:47;;;;;;;3.22;2.92;;;;;;;;;;5083674;28;20718;-78
2024/01/21 04:17:13;;;;;;;7.43;4.47;;;;;;;;;;5079947;28;20753;-79
2024/01/21 04:19:39;;;;;;;8.60;4.88;;;;;;;;;;5080289;28;20036;-78
2024/01/21 04:22:05;;;;;;;8.27;4.00;;;;;;;;;;5078901;28;20063;-77
2024/01/21 04:24:31;;;;;;;11.98;6.30;;;;;;;;;;5078777;28;20032;-79
2024/01/21 04:26:57;;;;;;;6.47;4.35;;;;;;;;;;5083124;28;21705;-79
2024/01/21 04:29:23;;;;;;;11.20;4.63;;;;;;;;;;5072757;28;20032;-77
2024/01/21 04:31:49;;;;;;;4.47;3.17;;;;;;;;;;5073520;28;22267;-78
2024/01/21 04:34:15;;;;;;;7.65;4.13;;;;;;;;;;5070637;28;20073;-78
2024/01/21 04:36:40;;;;;;;8.35;4.45;;;;;;;;;;5083739;28;20016;-77
2024/01/21 04:39:07;;;;;;;4.80;4.18;;;;;;;;;;5079173;28;20020;-78
2024/01/21 04:41:33;;;;;;;6.15;4.25;;;;;;;;;;5074480;28;20149;-79
2024/01/21 04:43:59;;;;;;;7.80;4.38;;;;;;;;;;5082866;28;20380;-78
2024/01/21 04:46:25;;;;;;;6.30;3.95;;;;;;;;;;5084339;28;20052;-78
2024/01/21 04:48:52;;;;;;;8.20;4.18;;;;;;;;;;5073389;28;20091;-79
2024/01/21 04:51:18;;;;;;;7.88;4.93;;;;;;;;;;5077057;28;20024;-78
2024/01/21 04:53:44;;;;;;;6.30;4.00;;;;;;;;;;5079393;28;20111;-77
2024/01/21 04:56:17;;;;;;;9.18;6.25;;;;;;;;;;5084069;28;20297;-77
2024/01/21 04:58:43;;;;;;;8.90;4.50;;;;;;;;;;5070963;28;20043;-76
2024/01/21 05:01:09;;;;;;;7.88;5.60;;;;;;;;;;5077901;28;20032;-77
2024/01/21 05:03:34;;;;;;;6.68;5.97;;;;;;;;;;5062993;28;20577;-77
2024/01/21 05:06:00;;;;;;;9.27;4.60;;;;;;;;;;5086996;28;20480;-79
2024/01/21 05:08:26;;;;;;;8.30;3.95;;;;;;;;;;5074474;28;20488;-77
2024/01/21 05:10:52;;;;;;;5.75;3.97;;;;;;;;;;5084992;28;20500;-77
2024/01/21 05:13:19;;;;;;;12.52;5.93;;;;;;;;;;5069284;28;20671;-77
2024/01/21 05:15:45;;;;;;;7.03;3.90;;;;;;;;;;5077587;28;20071;-78
2024/01/21 05:18:11;;;;;;;6.38;4.25;;;;;;;;;;5076324;28;20480;-76
2024/01/21 05:20:37;;;;;;;5.57;3.78;;;;;;;;;;5064131;28;20353;-76
2024/01/21 05:23:03;;;;;;;8.70;3.97;;;;;;;;;;5073987;28;20028;-76
2024/01/21 05:25:29;;;;;;;14.57;7.13;;;;;;;;;;5077181;28;20177;-75
2024/01/21 05:27:56;;;;;;;6.10;3.75;;;;;;;;;;5073175;28;20032;-76
2024/01/21 05:30:22;;;;;;;8.75;5.38;;;;;;;;;;5077893;28;20093;-76
2024/01/21 05:32:50;;;;;;;11.13;5.57;;;;;;;;;;5076605;28;20032;-76
2024/01/21 05:35:16;;;;;;;6.25;4.38;;;;;;;;;;5081446;28;20023;-77
2024/01/21 05:37:42;;;;;;;7.47;4.35;;;;;;;;;;5077821;28;20028;-76
2024/01/21 05:40:09;;;;;;;8.00;5.30;;;;;;;;;;5076840;28;20028;-75
2024/01/21 05:42:35;;;;;;;11.15;5.63;;;;;;;;;;5078364;28;20035;-76
2024/01/21 05:45:01;;;;;;;12.77;5.38;;;;;;;;;;5075891;28;20059;-76
2024/01/21 05:47:26;;;;;;;8.32;6.22;;;;;;;;;;5078296;28;20047;-76
2024/01/21 05:49:52;;;;;;;6.05;2.55;;;;;;;;;;5078868;28;21381;-77
2024/01/21 05:52:18;;;;;;;4.97;3.88;;;;;;;;;;5079402;28;20028;-76
2024/01/21 05:54:44;;;;;;;5.95;3.92;;;;;;;;;;5076286;28;20025;-77
2024/01/21 05:57:10;;;;;;;10.25;4.43;;;;;;;;;;5080375;28;20026;-77
2024/01/21 05:59:36;;;;;;;7.40;4.90;;;;;;;;;;5079150;28;20493;-76
2024/01/21 06:02:02;;;;;;;10.48;6.05;;;;;;;;;;5075388;28;20154;-76
2024/01/21 06:04:28;;;;;;;12.55;5.28;;;;;;;;;;5082454;28;20035;-76
2024/01/21 06:06:54;;;;;;;4.90;3.58;;;;;;;;;;5079623;28;22012;-76
2024/01/21 06:09:20;;;;;;;6.80;4.68;;;;;;;;;;5077973;28;20461;-75
2024/01/21 06:11:46;;;;;;;5.95;3.78;;;;;;;;;;5077381;28;20466;-75
2024/01/21 06:14:12;;;;;;;11.93;6.78;;;;;;;;;;5074553;28;20389;-76
2024/01/21 06:16:39;;;;;;;3.80;3.50;;;;;;;;;;5083188;28;20032;-75
2024/01/21 06:19:05;;;;;;;7.38;4.50;;;;;;;;;;5080768;28;20028;-76
2024/01/21 06:21:31;;;;;;;8.77;5.63;;;;;;;;;;5082962;28;20028;-76
2024/01/21 06:23:57;;;;;;;16.80;7.65;;;;;;;;;;5071500;28;21398;-75
2024/01/21 06:26:23;;;;;;;7.55;4.53;;;;;;;;;;5083980;28;20035;-76
2024/01/21 06:28:49;;;;;;;9.25;4.10;;;;;;;;;;5060107;28;20031;-77
2024/01/21 06:31:15;;;;;;;5.90;3.60;;;;;;;;;;5080444;28;20404;-76
2024/01/21 06:33:42;;;;;;;4.50;3.85;;;;;;;;;;5076555;28;20042;-75
2024/01/21 06:36:08;;;;;;;8.15;5.72;;;;;;;;;;5082651;28;20020;-76
2024/01/21 06:38:34;;;;;;;17.55;5.75;;;;;;;;;;5075120;28;20131;-77
2024/01/21 06:41:00;;;;;;;9.90;4.57;;;;;;;;;;5078176;28;20073;-77
2024/01/21 06:43:27;;;;;;;9.60;5.28;;;;;;;;;;5093627;28;20032;-77
2024/01/21 06:45:52;;;;;;;8.18;4.70;;;;;;;;;;5097564;28;20062;-78
2024/01/21 06:48:19;;;;;;;16.67;6.50;;;;;;;;;;5077453;28;20519;-76
2024/01/21 06:50:50;;;;;;;8.43;4.70;;;;;;;;;;5084662;28;20096;-78
2024/01/21 06:53:16;;;;;;;12.48;5.35;;;;;;;;;;5082824;28;20463;-77
2024/01/21 06:55:45;;;;;;;4.90;4.28;;;;;;;;;;5081132;28;20027;-77
2024/01/21 06:58:11;;;;;;;8.43;4.70;;;;;;;;;;5078358;28;20085;-77
2024/01/21 07:00:37;;;;;;;8.90;5.82;;;;;;;;;;5066225;28;20372;-76
2024/01/21 07:03:03;;;;;;;13.57;5.30;;;;;;;;;;5056993;28;20028;-76
2024/01/21 07:05:29;;;;;;;7.07;4.45;;;;;;;;;;5078579;28;20028;-76
2024/01/21 07:07:56;;;;;;;6.28;3.40;;;;;;;;;;5080335;28;20515;-75
2024/01/21 07:10:23;;;;;;;7.97;5.15;;;;;;;;;;5079694;28;20641;-75
2024/01/21 07:12:49;;;;;;;30.77;17.10;;;;;;;;;;5072338;28;20513;-75
2024/01/21 07:15:15;;;;;;;32.05;12.30;;;;;;;;;;5086611;28;20206;-75
2024/01/21 07:17:41;;;;;;;11.23;4.70;;;;;;;;;;5079893;28;20028;-75
2024/01/21 07:20:11;;;;;;;6.65;5.78;;;;;;;;;;5081689;28;20028;-75
2024/01/21 07:22:37;;;;;;;8.85;3.75;;;;;;;;;;5077622;28;20403;-75
2024/01/21 07:25:04;;;;;;;9.55;4.30;;;;;;;;;;5082049;28;20031;-75
2024/01/21 07:27:30;;;;;;;8.18;4.97;;;;;;;;;;5087123;28;20556;-74
2024/01/21 07:29:55;;;;;;;7.93;4.20;;;;;;;;;;5085213;28;20039;-74
2024/01/21 07:32:21;;;;;;;5.05;3.80;;;;;;;;;;5084881;28;20020;-74
2024/01/21 07:34:47;;;;;;;10.18;5.18;;;;;;;;;;5082767;28;20499;-74
2024/01/21 07:37:14;;;;;;;8.73;3.78;;;;;;;;;;5085497;28;20040;-76
2024/01/21 07:39:40;;;;;;;12.32;6.53;;;;;;;;;;5078337;28;20416;-74
2024/01/21 07:42:06;;;;;;;13.93;6.38;;;;;;;;;;5079978;28;20025;-75
2024/01/21 07:44:32;;;;;;;9.55;5.88;;;;;;;;;;5083893;28;20024;-74
2024/01/21 07:46:58;;;;;;;9.10;4.43;;;;;;;;;;5079035;28;20477;-74
2024/01/21 07:49:24;;;;;;;11.00;6.03;;;;;;;;;;5076126;28;20711;-74
2024/01/21 07:51:50;;;;;;;6.03;5.43;;;;;;;;;;5070927;28;20507;-74
2024/01/21 07:54:15;;;;;;;4.35;3.92;;;;;;;;;;5071050;28;20110;-74
2024/01/21 07:56:41;;;;;;;9.25;6.03;;;;;;;;;;5067981;28;20032;-74
2024/01/21 07:59:07;;;;;;;9.30;6.55;;;;;;;;;;5068675;28;20079;-75
2024/01/21 08:01:33;;;;;;;7.13;3.40;;;;;;;;;;5075405;28;20028;-75
2024/01/21 08:03:59;;;;;;;10.77;4.65;;;;;;;;;;5077531;28;20039;-76
2024/01/21 08:06:25;;;;;;;11.45;5.10;;;;;;;;;;5090883;28;20032;-76
2024/01/21 08:08:51;;;;;;;11.18;5.28;;;;;;;;;;5076058;28;20391;-74
2024/01/21 08:11:17;;;;;;;15.90;6.65;;;;;;;;;;5084737;28;20028;-75
2024/01/21 08:13:44;;;;;;;8.73;5.05;;;;;;;;;;5078228;28;20032;-75
2024/01/21 08:16:10;;;;;;;4.88;4.25;;;;;;;;;;5085057;28;20104;-75
2024/01/21 08:18:37;;;;;;;16.80;7.03;;;;;;;;;;5076732;28;20525;-75
2024/01/21 08:21:03;;;;;;;6.93;4.28;;;;;;;;;;5082439;28;20024;-76
2024/01/21 08:23:28;;;;;;;8.63;4.43;;;;;;;;;;5080356;28;20051;-75
2024/01/21 08:25:54;;;;;;;6.88;5.25;;;;;;;;;;5079739;28;20028;-75
2024/01/21 08:28:20;;;;;;;11.75;5.97;;;;;;;;;;5085654;28;20024;-76
2024/01/21 08:30:46;;;;;;;5.57;5.03;;;;;;;;;;5052500;28;21954;-76
2024/01/21 08:33:12;;;;;;;18.40;5.30;;;;;;;;;;5078961;28;20462;-75
2024/01/21 08:35:40;;;;;;;6.75;4.82;;;;;;;;;;5079678;28;20519;-76
2024/01/21 08:38:06;;;;;;;12.35;6.40;;;;;;;;;;5072349;28;20561;-75
2024/01/21 08:40:32;;;;;;;8.10;6.55;;;;;;;;;;5072282;28;20066;-76
2024/01/21 08:42:58;;;;;;;11.32;7.88;;;;;;;;;;5070883;28;20032;-77
2024/01/21 08:45:24;;;;;;;11.65;6.15;;;;;;;;;;5072168;28;20542;-76
2024/01/21 08:47:50;;;;;;;11.32;7.00;;;;;;;;;;5071563;28;20161;-77
2024/01/21 08:50:16;;;;;;;12.30;5.18;;;;;;;;;;5068691;28;20024;-76
2024/01/21 08:52:42;;;;;;;12.32;7.57;;;;;;;;;;5069049;28;20028;-76
2024/01/21 08:55:08;;;;;;;63.58;31.73;;;;;;;;;;5069056;28;20043;-76
2024/01/21 08:57:34;;;;;;;65.70;28.38;;;;;;;;;;5068624;28;20028;-76
2024/01/21 09:00:00;;;;;;;41.90;22.48;;;;;;;;;;5065978;28;20056;-75
2024/01/21 09:02:26;;;;;;;57.78;22.27;;;;;;;;;;5070828;28;20028;-75
2024/01/21 09:04:52;;;;;;;34.95;16.10;;;;;;;;;;5064827;28;20023;-76
2024/01/21 09:07:18;;;;;;;25.02;11.63;;;;;;;;;;5069137;28;20028;-76
2024/01/21 09:09:44;;;;;;;19.17;8.90;;;;;;;;;;5075027;28;20479;-76
2024/01/21 09:12:10;;;;;;;24.83;10.32;;;;;;;;;;5078652;28;20383;-76
2024/01/21 09:14:36;;;;;;;16.73;8.93;;;;;;;;;;5070250;28;20028;-75
2024/01/21 09:17:02;;;;;;;22.92;9.57;;;;;;;;;;5070047;28;20077;-76
2024/01/21 09:19:28;;;;;;;13.60;7.72;;;;;;;;;;5070886;28;20028;-75
2024/01/21 09:21:54;;;;;;;16.52;7.93;;;;;;;;;;5074919;28;20162;-75
2024/01/21 09:24:21;;;;;;;14.93;6.65;;;;;;;;;;5072306;28;20032;-76
2024/01/21 09:26:47;;;;;;;13.82;6.90;;;;;;;;;;5072139;28;20027;-77
2024/01/21 09:29:13;;;;;;;14.40;6.65;;;;;;;;;;5073587;28;20024;-77
2024/01/21 09:31:39;;;;;;;9.20;6.10;;;;;;;;;;5073135;28;20071;-77
2024/01/21 09:34:05;;;;;;;8.40;5.22;;;;;;;;;;5073379;28;21069;-76
2024/01/21 09:36:31;;;;;;;16.20;5.70;;;;;;;;;;5079193;28;20027;-77
2024/01/21 09:38:57;;;;;;;7.32;4.35;;;;;;;;;;5061466;28;20047;-75
2024/01/21 09:41:34;;;;;;;9.82;4.68;;;;;;;;;;5081467;28;20031;-77
2024/01/21 09:44:01;;;;;;;11.70;5.10;;;;;;;;;;5075148;28;20085;-75
2024/01/21 09:46:28;;;;;;;5.68;4.25;;;;;;;;;;5077410;28;20087;-76
2024/01/21 09:48:54;;;;;;;6.95;4.13;;;;;;;;;;5071426;28;20026;-77
2024/01/21 09:51:21;;;;;;;9.13;5.13;;;;;;;;;;5081788;28;20532;-75
2024/01/21 09:53:49;;;;;;;9.82;5.35;;;;;;;;;;5072940;28;20044;-78
2024/01/21 09:56:17;;;;;;;8.90;4.65;;;;;;;;;;5097741;28;20029;-75
2024/01/21 09:58:43;;;;;;;9.48;5.32;;;;;;;;;;5099176;28;20036;-75
2024/01/21 10:01:09;;;;;;;9.40;5.32;;;;;;;;;;5085543;28;20553;-77
2024/01/21 10:03:35;;;;;;;8.05;4.45;;;;;;;;;;5078626;28;20029;-78
2024/01/21 10:06:01;;;;;;;13.25;5.55;;;;;;;;;;5084564;28;20073;-78
2024/01/21 10:08:28;;;;;;;8.35;4.80;;;;;;;;;;5069389;28;20066;-77
2024/01/21 10:10:54;;;;;;;6.10;3.28;;;;;;;;;;5076584;28;20545;-78
2024/01/21 10:13:20;;;;;;;11.10;4.43;;;;;;;;;;5076296;28;20084;-76
2024/01/21 10:15:46;;;;;;;8.77;4.45;;;;;;;;;;5075328;28;20127;-78
2024/01/21 10:18:12;;;;;;;8.15;4.43;;;;;;;;;;5075796;28;20028;-78
2024/01/21 10:20:38;;;;;;;6.30;3.92;;;;;;;;;;5085140;28;20024;-76
2024/01/21 10:23:10;;;;;;;8.88;5.00;;;;;;;;;;5082429;28;20031;-76
2024/01/21 10:25:39;;;;;;;10.98;5.32;;;;;;;;;;5078055;28;20039;-77
2024/01/21 10:28:05;;;;;;;9.25;5.97;;;;;;;;;;5080389;28;20039;-78
2024/01/21 10:30:31;;;;;;;8.88;5.22;;;;;;;;;;5080828;28;20028;-78
2024/01/21 10:32:58;;;;;;;12.23;5.63;;;;;;;;;;5079179;28;20032;-77
2024/01/21 10:35:24;;;;;;;7.90;5.68;;;;;;;;;;5083946;28;20365;-77
2024/01/21 10:37:50;;;;;;;9.60;4.72;;;;;;;;;;5079603;28;20156;-78
2024/01/21 10:40:17;;;;;;;9.93;4.97;;;;;;;;;;5081056;28;20163;-77
2024/01/21 10:42:43;;;;;;;6.00;3.45;;;;;;;;;;5071424;28;20027;-76
2024/01/21 10:45:09;;;;;;;8.07;4.32;;;;;;;;;;5082520;28;20065;-77
2024/01/21 10:47:36;;;;;;;6.45;4.18;;;;;;;;;;5078432;28;20028;-76
2024/01/21 10:50:03;;;;;;;8.02;4.97;;;;;;;;;;5084279;28;20093;-76
2024/01/21 10:52:29;;;;;;;6.80;4.00;;;;;;;;;;5076763;28;20616;-77
2024/01/21 10:54:55;;;;;;;8.07;3.40;;;;;;;;;;5079497;28;20313;-77
2024/01/21 10:57:21;;;;;;;7.40;4.82;;;;;;;;;;5081832;28;20045;-78
2024/01/21 10:59:47;;;;;;;8.48;3.63;;;;;;;;;;5074578;28;20020;-78
2024/01/21 11:02:13;;;;;;;6.63;3.90;;;;;;;;;;5082664;28;20036;-78
2024/01/21 11:04:39;;;;;;;7.18;3.40;;;;;;;;;;5085656;28;20031;-77
2024/01/21 11:07:05;;;;;;;12.70;4.45;;;;;;;;;;5077815;28;20535;-78
2024/01/21 11:09:33;;;;;;;9.48;3.88;;;;;;;;;;5079517;28;20028;-77
2024/01/21 11:11:59;;;;;;;25.48;10.18;;;;;;;;;;5082288;28;20532;-76
2024/01/21 11:14:34;;;;;;;25.63;10.95;;;;;;;;;;5083537;28;20031;-77
2024/01/21 11:17:02;;;;;;;13.27;7.10;;;;;;;;;;5072358;28;20450;-78
2024/01/21 11:19:46;;;;;;;10.48;5.65;;;;;;;;;;5080194;28;20403;-77
2024/01/21 11:22:13;;;;;;;9.65;4.80;;;4.00;99.90;;;;;;5075956;28;20020;-78
2024/01/21 11:24:40;;;;;;;8.02;3.97;;;;;;;;;;5077905;28;20042;-78
2024/01/21 11:27:14;;;;;;;5.28;3.00;;;;;;;;;;5077317;28;20260;-77
2024/01/21 11:29:40;;;;;;;5.18;3.65;;;;;;;;;;5083617;28;20050;-77
2024/01/21 11:32:08;;;;;;;4.72;3.50;;;;;;;;;;5068703;28;20024;-77
2024/01/21 11:34:38;;;;;;;9.48;3.75;;;;;;;;;;5069659;28;20039;-77
2024/01/21 11:37:08;;;;;;;6.68;3.63;;;;;;;;;;5083893;28;20036;-77
2024/01/21 11:39:34;;;;;;;7.30;3.97;;;;;;;;;;5085609;28;20032;-77
2024/01/21 11:42:01;;;;;;;6.65;3.42;;;;;;;;;;5083603;28;20033;-78
2024/01/21 11:44:28;;;;;;;9.57;4.00;;;;;;;;;;5085308;28;20426;-77
2024/01/21 11:46:55;;;;;;;6.80;3.75;;;;;;;;;;5084505;28;20073;-76
2024/01/21 11:49:22;;;;;;;9.63;3.35;;;;;;;;;;5078873;28;20048;-77
2024/01/21 11:51:48;;;;;;;7.13;3.97;;;;;;;;;;5074215;28;20024;-77
2024/01/21 11:54:14;;;;;;;7.93;3.30;;;;;;;;;;5079342;28;20032;-77
2024/01/21 11:56:40;;;;;;;6.47;3.22;;;;;;;;;;5086129;28;20461;-78
2024/01/21 11:59:07;;;;;;;7.93;3.63;;;;;;;;;;5086064;28;20118;-78
2024/01/21 12:01:34;;;;;;;6.72;3.92;;;;;;;;;;5084488;28;20039;-76
2024/01/21 12:04:07;;;;;;;6.65;4.05;;;;;;;;;;5082169;28;20504;-76
2024/01/21 12:06:35;;;;;;;4.60;3.10;;;;;;;;;;5083341;28;20592;-78
2024/01/21 12:09:01;;;;;;;11.35;4.05;;;;;;;;;;5078214;28;20658;-78
2024/01/21 12:11:27;;;;;;;8.70;3.42;;;;;;;;;;5087365;28;20035;-77
2024/01/21 12:13:53;;;;;;;5.43;3.63;;;;;;;;;;5077552;28;20028;-76
2024/01/21 12:16:19;;;;;;;8.02;3.75;;;;;;;;;;5084420;28;20107;-77
2024/01/21 12:18:45;;;;;;;12.15;4.03;;;;;;;;;;5084048;28;20039;-77
2024/01/21 12:21:13;;;;;;;8.80;4.00;;;;;;;;;;5082939;28;20530;-77
2024/01/21 12:23:45;;;;;;;5.80;3.70;;;;;;;;;;5073673;28;20020;-77
2024/01/21 12:26:17;;;;;;;5.75;3.83;;;;;;;;;;5080601;28;20046;-77
2024/01/21 12:28:56;;;;;;;8.00;3.03;;;;;;;;;;5079961;28;20020;-77
2024/01/21 12:31:26;;;;;;;9.60;3.78;;;;;;;;;;5074458;28;20048;-77
2024/01/21 12:33:52;;;;;;;5.55;3.55;;;;;;;;;;5084525;28;20112;-77
2024/01/21 12:36:18;;;;;;;5.50;2.92;;;;;;;;;;5083996;28;20032;-76
2024/01/21 12:38:44;;;;;;;7.22;3.05;;;;;;;;;;5077056;28;20147;-78
2024/01/21 12:41:10;;;;;;;6.70;2.35;;;;;;;;;;5079639;28;20111;-76
2024/01/21 12:43:36;;;;;;;5.50;2.10;;;;;;;;;;5079172;28;20780;-77
2024/01/21 12:46:03;;;;;;;5.47;2.35;;;;;;;;;;5081658;28;20408;-77
2024/01/21 12:48:30;;;;;;;5.35;2.50;;;;;;;;;;5071802;28;20024;-78
2024/01/21 12:50:55;;;;;;;6.63;2.67;;;;;;;;;;5083378;28;20024;-78
2024/01/21 12:53:21;;;;;;;4.45;2.25;;;;;;;;;;5075811;28;20046;-78
2024/01/21 12:55:47;;;;;;;6.25;2.78;;;;;;;;;;5079610;28;20142;-77
2024/01/21 12:58:13;;;;;;;3.03;2.05;;;;;;;;;;5077883;28;20020;-76
2024/01/21 13:00:39;;;;;;;8.23;2.45;;;;;;;;;;5080352;28;20097;-77
2024/01/21 13:03:06;;;;;;;5.45;2.42;;;;;;;;;;5075627;28;20499;-77
2024/01/21 13:05:32;;;;;;;9.77;2.35;;;;;;;;;;5077374;28;20031;-75
2024/01/21 13:07:59;;;;;;;6.82;2.50;;;;;;;;;;5073702;28;20024;-76
2024/01/21 13:10:26;;;;;;;6.22;2.60;;;;;;;;;;5085231;28;20035;-78
2024/01/21 13:12:52;;;;;;;5.07;2.22;;;;;;;;;;5080654;28;20016;-77
2024/01/21 13:15:18;;;;;;;7.65;3.28;;;;;;;;;;5080259;28;20446;-78
2024/01/21 13:17:44;;;;;;;4.60;2.63;;;;;;;;;;5064416;28;20032;-77
2024/01/21 13:20:10;;;;;;;7.93;2.78;;;;;;;;;;5079350;28;20082;-76
2024/01/21 13:22:36;;;;;;;8.52;2.42;;;;;;;;;;5081764;28;20032;-77
2024/01/21 13:25:02;;;;;;;8.00;3.20;;;;;;;;;;5082039;28;20024;-77
2024/01/21 13:27:39;;;;;;;10.32;4.70;;;;;;;;;;5082786;28;20109;-78
2024/01/21 13:32:51;;;;;;;7.93;3.08;;;;;;;;;;5082867;28;20054;-77
2024/01/21 13:35:17;;;;;;;6.93;4.63;;;;;;;;;;5102156;28;20485;-77
2024/01/21 13:37:43;;;;;;;14.38;4.82;;;;;;;;;;5096239;28;20086;-76
2024/01/21 13:40:10;;;;;;;14.55;5.47;;;;;;;;;;5080336;28;20024;-78
2024/01/21 13:42:36;;;;;;;12.43;5.72;;;;;;;;;;5082441;28;20028;-78
2024/01/21 13:45:02;;;;;;;10.88;4.63;;;;;;;;;;5086662;28;20017;-78
2024/01/21 13:47:28;;;;;;;34.03;10.88;;;;;;;;;;5082420;28;20032;-77
2024/01/21 13:49:54;;;;;;;18.98;8.23;;;;;;;;;;5080551;28;20047;-78
2024/01/21 13:52:20;;;;;;;14.73;6.57;;;;;;;;;;5078209;28;20506;-77
2024/01/21 13:54:46;;;;;;;9.48;4.32;;;;;;;;;;5083010;28;20062;-78
2024/01/21 13:57:12;;;;;;;15.07;5.57;;;;;;;;;;5080719;28;20040;-78
2024/01/21 13:59:38;;;;;;;13.82;5.13;;;;;;;;;;5056362;28;20027;-77
2024/01/21 14:02:07;;;;;;;6.80;3.53;;;4.20;99.90;;;;;;5079818;28;20036;-79
2024/01/21 14:04:33;;;;;;;7.93;4.03;;;;;;;;;;5063741;28;20028;-79
2024/01/21 14:06:59;;;;;;;5.22;3.58;;;;;;;;;;5080491;28;20040;-78
2024/01/21 14:09:25;;;;;;;16.17;6.47;;;;;;;;;;5080086;28;20024;-77
2024/01/21 14:11:51;;;;;;;11.02;4.90;;;;;;;;;;5078783;28;20046;-79
2024/01/21 14:14:17;;;;;;;9.80;4.35;;;;;;;;;;5080020;28;20016;-78
2024/01/21 14:16:43;;;;;;;11.23;5.47;;;;;;;;;;5081942;28;20399;-76
2024/01/21 14:19:09;;;;;;;19.63;6.40;;;;;;;;;;5080323;28;20028;-79
2024/01/21 14:21:35;;;;;;;16.60;6.07;;;;;;;;;;5076910;28;20032;-78
2024/01/21 14:24:01;;;;;;;11.77;5.32;;;;;;;;;;5077332;28;20088;-77
2024/01/21 14:26:32;;;;;;;19.83;6.63;;;;;;;;;;5077978;28;20027;-78
2024/01/21 14:28:59;;;;;;;21.45;6.90;;;;;;;;;;5072593;28;20032;-76
2024/01/21 14:31:26;;;;;;;19.67;7.93;;;;;;;;;;5079781;28;20419;-76
2024/01/21 14:33:52;;;;;;;13.70;7.18;;;;;;;;;;5079386;28;20024;-77
2024/01/21 14:36:18;;;;;;;13.43;7.85;;;;;;;;;;5086622;28;20353;-78